Time;durP1;ratioP1;P1;durP2;ratioP2;P2;SDS_P1;SDS_P2;PMS_P1;PMS_P2;Temp;Humidity;BMP_temperature;BMP_pressure;BME280_temperature;BME280_humidity;BME280_pressure;Samples;Min_cycle;Max_cycle;Signal;HPM_P1;HPM_P2
2021/12/19 00:01:07;;;;;;;8.00;3.83;;;6.80;99.90;;;;;;4828869;29;20510;-93
2021/12/19 00:09:08;;;;;;;4.57;3.45;;;6.80;99.90;;;;;;4831888;29;20536;-93
2021/12/19 00:11:50;;;;;;;;;;;;;;;;;;;;;
2021/12/19 00:14:38;;;;;;;;;;;;;;;;;;;;;
2021/12/19 00:17:11;;;;;;;3.90;2.70;;;6.80;99.90;;;;;;4825119;29;20414;-93
2021/12/19 00:19:59;;;;;;;5.50;3.00;;;6.80;99.90;;;;;;4813182;29;20092;-92
2021/12/19 00:22:37;;;;;;;;;;;;;;;;;;;;;
2021/12/19 00:25:10;;;;;;;5.90;3.40;;;6.80;99.90;;;;;;4813609;29;20061;-93
2021/12/19 00:27:38;;;;;;;4.35;3.00;;;6.80;99.90;;;;;;4828863;29;20500;-93
2021/12/19 00:30:05;;;;;;;6.15;3.53;;;6.80;99.90;;;;;;4809083;29;20050;-93
2021/12/19 00:33:05;;;;;;;;;;;;;;;;;;;;;
2021/12/19 00:35:36;;;;;;;4.93;3.63;;;6.80;99.90;;;;;;4832292;29;20129;-93
2021/12/19 00:38:14;;;;;;;6.75;4.28;;;6.80;99.90;;;;;;4828685;29;20046;-93
2021/12/19 00:40:44;;;;;;;5.13;2.83;;;6.50;99.90;;;;;;4828539;29;20133;-93
2021/12/19 00:43:34;;;;;;;6.18;4.03;;;6.80;99.90;;;;;;4811893;29;20054;-94
2021/12/19 00:46:15;;;;;;;7.97;4.05;;;6.10;99.90;;;;;;4832621;29;20081;-93
2021/12/19 00:48:52;;;;;;;5.07;2.60;;;6.90;99.90;;;;;;4829487;29;20197;-94
2021/12/19 00:51:38;;;;;;;4.43;3.42;;;6.90;99.90;;;;;;4831195;29;20071;-92
2021/12/19 00:54:10;;;;;;;8.68;3.50;;;6.90;99.90;;;;;;4816259;29;20050;-94
2021/12/19 00:56:53;;;;;;;6.68;3.88;;;6.90;99.90;;;;;;4810186;29;20056;-94
2021/12/19 00:59:31;;;;;;;9.48;3.95;;;6.90;99.90;;;;;;4828890;29;20065;-92
2021/12/19 01:02:04;;;;;;;6.15;3.50;;;6.90;99.90;;;;;;4815008;29;20053;-92
2021/12/19 01:04:44;;;;;;;8.32;3.50;;;6.90;99.90;;;;;;4823841;29;20057;-93
2021/12/19 01:07:20;;;;;;;11.82;4.78;;;6.90;99.90;;;;;;4818701;29;20055;-93
2021/12/19 01:09:46;;;;;;;6.55;3.83;;;6.90;99.90;;;;;;4822779;29;20073;-93
2021/12/19 01:12:42;;;;;;;;;;;;;;;;;;;;;
2021/12/19 01:15:16;;;;;;;8.00;4.90;;;6.90;99.90;;;;;;4829352;29;20053;-93
2021/12/19 01:17:45;;;;;;;7.90;4.40;;;7.20;99.90;;;;;;4808881;29;20259;-93
2021/12/19 01:20:22;;;;;;;6.80;3.80;;;6.90;99.90;;;;;;4814092;29;20132;-92
2021/12/19 01:23:15;;;;;;;5.07;3.53;;;6.90;99.90;;;;;;4818558;29;20053;-94
2021/12/19 01:25:52;;;;;;;3.45;2.60;;;6.90;99.90;;;;;;4837022;29;20057;-94
2021/12/19 01:28:21;;;;;;;2.00;1.67;;;6.70;99.90;;;;;;4816695;29;20062;-93
2021/12/19 01:31:10;;;;;;;2.70;1.67;;;6.90;99.90;;;;;;4802293;29;20165;-93
2021/12/19 01:33:46;;;;;;;3.45;2.05;;;6.00;99.90;;;;;;4806620;29;20118;-93
2021/12/19 01:36:15;;;;;;;3.20;1.70;;;6.90;99.90;;;;;;4821557;29;20050;-93
2021/12/19 01:38:44;;;;;;;2.00;1.38;;;6.80;99.90;;;;;;4834359;29;20055;-93
2021/12/19 01:41:24;;;;;;;1.75;1.25;;;6.80;99.90;;;;;;4833784;29;20049;-93
2021/12/19 01:43:50;;;;;;;1.85;1.40;;;6.80;99.90;;;;;;4824766;29;20058;-84
2021/12/19 01:46:16;;;;;;;2.03;1.80;;;6.80;99.90;;;;;;4825356;29;20056;-84
2021/12/19 01:48:42;;;;;;;3.93;1.40;;;6.80;99.90;;;;;;4824650;29;20053;-84
2021/12/19 01:51:08;;;;;;;2.83;1.30;;;6.80;99.90;;;;;;4795270;29;20490;-84
2021/12/19 01:53:33;;;;;;;3.00;0.80;;;6.80;99.90;;;;;;4824835;29;20114;-84
2021/12/19 01:56:03;;;;;;;0.87;0.80;;;6.80;99.90;;;;;;4813369;29;20132;-84
2021/12/19 01:58:29;;;;;;;0.75;0.75;;;6.80;99.90;;;;;;4828059;29;20062;-84
2021/12/19 02:00:57;;;;;;;0.47;0.40;;;6.80;99.90;;;;;;4813253;29;20397;-83
2021/12/19 02:03:23;;;;;;;0.55;0.55;;;6.80;99.90;;;;;;4827976;29;20405;-84
2021/12/19 02:05:49;;;;;;;0.82;0.60;;;6.70;99.90;;;;;;4812724;29;20446;-85
2021/12/19 02:08:17;;;;;;;0.35;0.22;;;6.70;99.90;;;;;;4812792;29;20054;-85
2021/12/19 02:10:43;;;;;;;0.38;0.38;;;6.70;99.90;;;;;;4812935;29;20050;-84
2021/12/19 02:13:11;;;;;;;0.55;0.52;;;7.10;99.90;;;;;;4828238;29;20050;-84
2021/12/19 02:15:39;;;;;;;0.95;0.65;;;6.70;99.90;;;;;;4812577;29;20416;-84
2021/12/19 02:18:08;;;;;;;0.65;0.47;;;6.70;99.90;;;;;;4827984;29;20054;-86
2021/12/19 02:20:38;;;;;;;0.52;0.50;;;6.70;99.90;;;;;;4827828;29;20050;-88
2021/12/19 02:23:04;;;;;;;1.25;0.63;;;6.70;99.90;;;;;;4812823;29;20109;-84
2021/12/19 02:25:30;;;;;;;1.30;0.57;;;6.70;99.90;;;;;;4827982;29;20528;-84
2021/12/19 02:27:56;;;;;;;1.13;0.50;;;6.70;99.90;;;;;;4812310;29;20053;-84
2021/12/19 02:30:22;;;;;;;0.73;0.55;;;7.30;99.90;;;;;;4827706;29;20516;-84
2021/12/19 02:32:48;;;;;;;1.43;0.30;;;6.70;99.90;;;;;;4812556;29;20050;-84
2021/12/19 02:35:19;;;;;;;3.43;0.43;;;7.60;99.90;;;;;;4797755;29;20482;-84
2021/12/19 02:40:41;;;;;;;0.40;0.40;;;7.10;99.90;;;;;;4812521;29;20502;-84
2021/12/19 02:48:36;;;;;;;0.50;0.50;;;6.70;99.90;;;;;;4842327;29;20064;-88
2021/12/19 02:51:02;;;;;;;0.37;0.37;;;6.70;99.90;;;;;;4812695;29;20137;-84
2021/12/19 02:53:34;;;;;;;1.08;0.70;;;6.70;99.90;;;;;;4826962;29;20131;-84
2021/12/19 02:56:02;;;;;;;1.13;0.70;;;7.40;99.90;;;;;;4826822;29;20516;-84
2021/12/19 02:58:29;;;;;;;2.47;0.75;;;6.70;99.90;;;;;;4827176;29;20046;-84
2021/12/19 03:00:56;;;;;;;1.20;0.88;;;6.70;99.90;;;;;;4812115;29;20505;-84
2021/12/19 03:03:22;;;;;;;1.45;0.90;;;6.70;99.90;;;;;;4812284;29;20576;-83
2021/12/19 03:05:47;;;;;;;0.40;0.40;;;6.70;99.90;;;;;;4811442;29;20132;-84
2021/12/19 03:08:13;;;;;;;2.07;0.80;;;6.70;99.90;;;;;;4827370;29;20486;-84
2021/12/19 03:17:56;;;;;;;0.47;0.47;;;6.60;99.90;;;;;;4826900;29;20046;-85
2021/12/19 03:18:42;;;;;;;0.80;0.80;;;6.60;99.90;;;;;;4829245;29;20140;-85
2021/12/19 03:21:12;;;;;;;1.70;0.77;;;6.60;99.90;;;;;;4812019;29;20082;-84
2021/12/19 03:23:38;;;;;;;1.02;0.57;;;6.60;99.90;;;;;;4827058;29;20144;-84
2021/12/19 03:26:04;;;;;;;1.63;0.43;;;6.60;99.90;;;;;;4841796;29;20124;-84
2021/12/19 03:28:30;;;;;;;0.50;0.50;;;6.70;99.90;;;;;;4826774;29;20053;-84
2021/12/19 03:30:56;;;;;;;0.65;0.47;;;6.60;99.90;;;;;;4811406;29;20145;-84
2021/12/19 03:33:22;;;;;;;0.50;0.43;;;6.60;99.90;;;;;;4826784;29;20050;-85
2021/12/19 03:35:48;;;;;;;1.58;0.70;;;6.60;99.90;;;;;;4811204;29;20494;-87
2021/12/19 03:38:15;;;;;;;0.73;0.57;;;6.60;99.90;;;;;;4826894;29;20054;-85
2021/12/19 03:41:04;;;;;;;0.30;0.25;;;6.60;99.90;;;;;;4811807;29;20052;-85
2021/12/19 03:43:31;;;;;;;0.50;0.22;;;6.60;99.90;;;;;;4811528;29;20383;-84
2021/12/19 03:45:56;;;;;;;0.32;0.32;;;6.50;99.90;;;;;;4811391;29;20140;-84
2021/12/19 03:48:22;;;;;;;0.50;0.40;;;6.50;99.90;;;;;;4811539;29;20161;-84
2021/12/19 03:50:49;;;;;;;0.73;0.73;;;6.50;99.90;;;;;;4811059;29;20106;-86
2021/12/19 03:53:18;;;;;;;0.20;0.20;;;6.80;99.90;;;;;;4810924;29;20066;-84
2021/12/19 03:55:45;;;;;;;0.57;0.43;;;7.20;99.90;;;;;;4811276;29;20375;-84
2021/12/19 03:58:11;;;;;;;;;;;6.50;99.90;;;;;;4811701;29;20054;-84
2021/12/19 04:00:37;;;;;;;0.28;0.28;;;6.40;99.90;;;;;;4811131;29;19964;-84
2021/12/19 04:03:07;;;;;;;0.20;0.20;;;6.40;99.90;;;;;;4811072;29;20092;-85
2021/12/19 04:05:33;;;;;;;0.30;0.30;;;6.50;99.90;;;;;;4826505;29;20054;-84
2021/12/19 04:07:59;;;;;;;0.65;0.50;;;6.40;99.90;;;;;;4826012;29;20050;-84
2021/12/19 04:10:27;;;;;;;0.20;0.20;;;6.40;99.90;;;;;;4826363;29;20041;-84
2021/12/19 04:12:54;;;;;;;2.80;0.60;;;6.30;99.90;;;;;;4810775;29;20057;-84
2021/12/19 04:15:20;;;;;;;0.30;0.30;;;6.40;99.90;;;;;;4826250;29;20144;-84
2021/12/19 04:17:46;;;;;;;0.30;0.30;;;6.30;99.90;;;;;;4825405;29;20137;-84
2021/12/19 04:20:15;;;;;;;4.65;0.57;;;6.30;99.90;;;;;;4826213;29;20202;-83
2021/12/19 04:22:42;;;;;;;0.13;0.10;;;6.30;99.90;;;;;;4811430;29;20405;-84
2021/12/19 04:25:08;;;;;;;1.05;0.88;;;6.80;99.90;;;;;;4825875;29;20425;-86
2021/12/19 04:27:36;;;;;;;1.25;0.52;;;6.30;99.90;;;;;;4795596;29;20486;-86
2021/12/19 04:30:03;;;;;;;0.50;0.50;;;6.30;99.90;;;;;;4825740;29;20414;-83
2021/12/19 04:32:33;;;;;;;0.52;0.52;;;6.30;99.90;;;;;;4826146;29;20056;-84
2021/12/19 04:35:00;;;;;;;0.57;0.52;;;6.30;99.90;;;;;;4810098;29;20076;-86
2021/12/19 04:53:52;;;;;;;1.38;1.02;;;6.30;99.90;;;;;;4827774;29;20558;-85
2021/12/19 05:05:03;;;;;;;5.57;1.48;;;6.30;99.90;;;;;;4804301;29;20068;-85
2021/12/19 05:15:36;;;;;;;4.72;1.98;;;6.30;99.90;;;;;;4825478;29;20050;-88
2021/12/19 05:18:06;;;;;;;4.90;1.80;;;6.30;99.90;;;;;;4825107;29;20058;-85
2021/12/19 05:20:33;;;;;;;6.45;2.40;;;6.40;99.90;;;;;;4810476;29;20057;-85
2021/12/19 05:23:08;;;;;;;5.28;2.20;;;6.30;99.90;;;;;;4825481;29;20490;-86
2021/12/19 05:25:33;;;;;;;3.97;2.67;;;6.30;99.90;;;;;;4811671;29;20046;-86
2021/12/19 05:28:00;;;;;;;6.23;2.53;;;6.40;99.90;;;;;;4810098;29;20060;-86
2021/12/19 05:30:26;;;;;;;4.20;2.50;;;6.40;99.90;;;;;;4813470;29;20134;-85
2021/12/19 05:32:54;;;;;;;4.72;2.10;;;6.50;99.90;;;;;;4813927;29;20058;-85
2021/12/19 05:35:32;;;;;;;8.52;3.08;;;6.40;99.90;;;;;;4828377;29;20111;-87
2021/12/19 05:46:10;;;;;;;6.82;3.22;;;6.50;99.90;;;;;;4815369;29;20053;-85
2021/12/19 05:48:36;;;;;;;5.17;2.93;;;6.40;99.90;;;;;;4828666;29;20057;-85
2021/12/19 05:51:01;;;;;;;7.53;3.30;;;6.80;99.90;;;;;;4812988;29;20061;-86
2021/12/19 05:53:27;;;;;;;13.03;4.20;;;6.90;99.90;;;;;;4813261;29;20113;-85
2021/12/19 05:55:55;;;;;;;10.73;4.00;;;7.30;99.90;;;;;;4813481;29;20052;-85
2021/12/19 05:58:20;;;;;;;7.13;4.28;;;6.80;99.90;;;;;;4813005;29;20058;-86
2021/12/19 06:00:46;;;;;;;13.80;5.00;;;6.90;99.90;;;;;;4813534;29;20167;-85
2021/12/19 06:03:12;;;;;;;14.57;5.00;;;6.40;99.90;;;;;;4813236;29;20093;-85
2021/12/19 06:05:37;;;;;;;12.20;4.90;;;6.50;99.90;;;;;;4813351;29;20053;-85
2021/12/19 06:08:06;;;;;;;14.02;4.57;;;6.80;99.90;;;;;;4827982;29;20528;-86
2021/12/19 06:10:31;;;;;;;11.27;4.40;;;7.20;99.90;;;;;;4813492;29;20050;-86
2021/12/19 06:12:59;;;;;;;10.10;4.47;;;6.50;99.90;;;;;;4813166;29;20060;-86
2021/12/19 06:15:25;;;;;;;7.85;4.53;;;6.50;99.90;;;;;;4827661;29;20046;-85
2021/12/19 06:17:52;;;;;;;15.77;5.18;;;6.50;99.90;;;;;;4813277;29;20053;-86
2021/12/19 06:20:18;;;;;;;9.18;4.97;;;6.50;99.90;;;;;;4827592;29;20062;-86
2021/12/19 06:22:44;;;;;;;13.15;4.38;;;6.50;99.90;;;;;;4843412;29;20046;-86
2021/12/19 06:25:10;;;;;;;12.13;4.80;;;6.50;99.90;;;;;;4812911;29;20057;-85
2021/12/19 06:27:39;;;;;;;10.35;4.15;;;6.50;99.90;;;;;;4813146;29;20106;-85
2021/12/19 06:30:06;;;;;;;9.02;4.63;;;7.00;99.90;;;;;;4812947;29;20058;-86
2021/12/19 06:32:32;;;;;;;;;;;6.50;99.90;;;;;;4843945;29;20054;-86
2021/12/19 06:34:59;;;;;;;10.90;3.67;;;6.50;99.90;;;;;;4828229;29;20287;-85
2021/12/19 06:37:25;;;;;;;7.22;3.83;;;5.90;99.90;;;;;;4812930;29;20042;-85
2021/12/19 06:39:51;;;;;;;11.40;4.40;;;6.50;99.90;;;;;;4812635;29;20107;-85
2021/12/19 06:42:17;;;;;;;6.60;3.83;;;6.50;99.90;;;;;;4812319;29;20298;-86
2021/12/19 06:44:43;;;;;;;6.63;3.63;;;6.50;99.90;;;;;;4813151;29;20088;-85
2021/12/19 06:47:08;;;;;;;6.77;3.63;;;6.50;99.90;;;;;;4812778;29;20050;-86
2021/12/19 06:49:34;;;;;;;6.67;3.13;;;6.50;99.90;;;;;;4812845;29;20050;-85
2021/12/19 06:52:00;;;;;;;11.47;4.07;;;6.60;99.90;;;;;;4812286;29;20077;-86
2021/12/19 06:54:25;;;;;;;9.47;4.17;;;6.50;99.90;;;;;;4812645;29;20288;-85
2021/12/19 06:56:51;;;;;;;6.03;3.67;;;6.60;99.90;;;;;;4827254;29;20042;-85
2021/12/19 06:59:17;;;;;;;9.00;3.53;;;6.60;99.90;;;;;;4812404;29;20053;-85
2021/12/19 07:01:43;;;;;;;11.20;4.17;;;6.60;99.90;;;;;;4812151;29;20046;-85
2021/12/19 07:04:08;;;;;;;12.77;4.13;;;6.60;99.90;;;;;;4812177;29;20054;-87
2021/12/19 07:06:34;;;;;;;12.70;4.00;;;7.00;99.90;;;;;;4827703;29;20053;-86
2021/12/19 07:09:01;;;;;;;5.60;3.17;;;6.50;99.90;;;;;;4812434;29;20497;-85
2021/12/19 07:11:26;;;;;;;9.38;3.42;;;6.50;99.90;;;;;;4812455;29;20057;-85
2021/12/19 07:13:53;;;;;;;8.13;3.40;;;6.50;99.90;;;;;;4827498;29;20397;-85
2021/12/19 07:16:18;;;;;;;9.73;3.80;;;6.50;99.90;;;;;;4812190;29;20081;-86
2021/12/19 07:18:46;;;;;;;11.60;3.83;;;6.50;99.90;;;;;;4827445;29;20501;-85
2021/12/19 07:21:14;;;;;;;7.68;3.20;;;6.50;99.90;;;;;;4811931;29;20053;-85
2021/12/19 07:23:40;;;;;;;8.18;4.15;;;6.60;99.90;;;;;;4812231;29;20056;-85
2021/12/19 07:26:06;;;;;;;8.80;3.80;;;6.50;99.90;;;;;;4842607;29;20045;-85
2021/12/19 07:28:31;;;;;;;5.07;3.00;;;6.70;99.90;;;;;;4811834;29;20565;-84
2021/12/19 07:30:57;;;;;;;9.50;4.00;;;6.60;99.90;;;;;;4814462;29;20050;-85
2021/12/19 07:33:23;;;;;;;6.60;2.97;;;6.50;99.90;;;;;;4826880;29;20041;-85
2021/12/19 07:35:50;;;;;;;10.82;3.25;;;6.50;99.90;;;;;;4827150;29;20133;-84
2021/12/19 07:38:25;;;;;;;4.05;2.67;;;6.50;99.90;;;;;;4811362;29;20141;-85
2021/12/19 07:40:51;;;;;;;3.42;2.20;;;6.50;99.90;;;;;;4827025;29;20493;-85
2021/12/19 07:43:17;;;;;;;8.77;2.93;;;6.70;99.90;;;;;;4811492;29;20054;-85
2021/12/19 07:45:44;;;;;;;11.30;2.65;;;6.50;99.90;;;;;;4814595;29;20046;-85
2021/12/19 07:48:10;;;;;;;10.00;2.50;;;6.60;99.90;;;;;;4811867;29;20050;-84
2021/12/19 07:50:36;;;;;;;7.07;2.20;;;6.50;99.90;;;;;;4811620;29;20082;-84
2021/12/19 07:53:03;;;;;;;8.65;3.10;;;6.50;99.90;;;;;;4826311;29;20454;-84
2021/12/19 07:55:29;;;;;;;3.58;2.28;;;6.50;99.90;;;;;;4810782;29;20053;-84
2021/12/19 07:57:55;;;;;;;5.65;2.55;;;7.30;99.90;;;;;;4811705;29;20089;-84
2021/12/19 08:00:21;;;;;;;4.60;2.07;;;6.60;99.90;;;;;;4826487;29;20460;-84
2021/12/19 08:02:48;;;;;;;7.93;2.40;;;6.50;99.90;;;;;;4826665;29;20046;-84
2021/12/19 08:05:14;;;;;;;;;;;6.60;99.90;;;;;;4811776;29;20057;-85
2021/12/19 08:07:42;;;;;;;10.43;2.30;;;6.50;99.90;;;;;;4811264;29;19975;-86
2021/12/19 08:12:36;;;;;;;10.40;2.38;;;6.60;99.90;;;;;;4841236;29;20365;-87
2021/12/19 08:15:03;;;;;;;6.80;2.05;;;6.60;99.90;;;;;;4811280;29;20386;-86
2021/12/19 08:17:31;;;;;;;4.55;3.00;;;6.60;99.90;;;;;;4810994;29;20405;-86
2021/12/19 08:19:58;;;;;;;6.82;2.25;;;6.60;99.90;;;;;;4811201;29;20057;-87
2021/12/19 08:22:25;;;;;;;5.47;2.30;;;6.60;99.90;;;;;;4811121;29;20508;-86
2021/12/19 08:24:56;;;;;;;4.18;2.20;;;6.60;99.90;;;;;;4811520;29;20050;-86
2021/12/19 08:27:24;;;;;;;2.45;2.05;;;6.30;99.90;;;;;;4811538;29;20413;-85
2021/12/19 08:29:51;;;;;;;5.13;2.22;;;6.80;99.90;;;;;;4826103;29;20058;-85
2021/12/19 08:32:18;;;;;;;6.55;2.60;;;6.60;99.90;;;;;;4811488;29;20118;-86
2021/12/19 08:34:46;;;;;;;12.40;3.30;;;6.60;99.90;;;;;;4795792;29;20509;-86
2021/12/19 08:37:12;;;;;;;4.68;2.33;;;6.60;99.90;;;;;;4810472;29;20132;-86
2021/12/19 08:39:41;;;;;;;6.43;2.70;;;7.60;99.90;;;;;;4810814;29;20141;-90
2021/12/19 08:42:06;;;;;;;9.80;2.53;;;7.40;99.90;;;;;;4842425;29;20046;-87
2021/12/19 08:44:33;;;;;;;5.70;2.57;;;6.50;99.90;;;;;;4826085;29;20409;-89
2021/12/19 08:47:01;;;;;;;4.88;2.35;;;6.60;99.90;;;;;;4810477;29;20102;-88
2021/12/19 08:49:27;;;;;;;5.35;2.35;;;6.60;99.90;;;;;;4813414;29;20409;-86
2021/12/19 08:51:54;;;;;;;4.37;2.20;;;6.60;99.90;;;;;;4811043;29;20477;-86
2021/12/19 08:54:22;;;;;;;5.13;2.97;;;6.80;99.90;;;;;;4825841;29;20359;-90
2021/12/19 08:56:49;;;;;;;3.10;1.88;;;6.60;99.90;;;;;;4811029;29;20053;-89
2021/12/19 08:59:17;;;;;;;;;;;6.60;99.90;;;;;;4826556;29;20061;-88
2021/12/19 09:01:43;;;;;;;6.00;1.98;;;6.60;99.90;;;;;;4825366;29;20368;-85
2021/12/19 09:04:09;;;;;;;4.18;1.90;;;6.60;99.90;;;;;;4829027;29;20401;-86
2021/12/19 09:06:36;;;;;;;6.40;2.20;;;7.20;99.90;;;;;;4816494;29;20054;-86
2021/12/19 09:09:02;;;;;;;;;;;6.60;99.90;;;;;;4831820;29;20061;-86
2021/12/19 09:11:28;;;;;;;5.30;1.95;;;6.70;99.90;;;;;;4831797;29;19924;-86
2021/12/19 09:13:54;;;;;;;5.83;2.40;;;6.70;99.90;;;;;;4816665;29;20058;-86
2021/12/19 09:16:20;;;;;;;7.03;2.33;;;6.70;99.90;;;;;;4816681;29;20057;-86
2021/12/19 09:18:46;;;;;;;3.67;1.90;;;6.70;99.90;;;;;;4816402;29;20493;-85
2021/12/19 09:21:12;;;;;;;5.47;2.23;;;6.70;99.90;;;;;;4816363;29;20101;-85
2021/12/19 09:23:37;;;;;;;3.53;2.30;;;6.70;99.90;;;;;;4816295;29;20061;-86
2021/12/19 09:26:05;;;;;;;7.97;2.20;;;6.70;99.90;;;;;;4816864;29;20375;-87
2021/12/19 09:28:31;;;;;;;8.02;2.20;;;6.80;99.90;;;;;;4815960;29;20569;-87
2021/12/19 09:30:56;;;;;;;6.20;1.97;;;6.80;99.90;;;;;;4831161;29;20062;-88
2021/12/19 09:33:25;;;;;;;8.27;2.50;;;6.80;99.90;;;;;;4816653;29;20056;-87
2021/12/19 09:35:50;;;;;;;4.15;2.45;;;6.80;99.90;;;;;;4831714;29;20133;-87
2021/12/19 09:38:20;;;;;;;6.90;1.80;;;6.80;99.90;;;;;;4816112;29;20146;-87
2021/12/19 09:40:46;;;;;;;5.47;2.40;;;7.70;99.90;;;;;;4816590;29;20508;-87
2021/12/19 09:43:41;;;;;;;6.53;2.28;;;7.10;99.90;;;;;;4816292;29;20058;-87
2021/12/19 09:46:15;;;;;;;4.18;1.63;;;7.10;99.90;;;;;;4816086;29;20052;-87
2021/12/19 09:48:43;;;;;;;8.48;2.03;;;6.80;99.90;;;;;;4816118;29;20064;-87
2021/12/19 09:51:10;;;;;;;6.45;1.50;;;7.10;99.90;;;;;;4831475;29;20050;-87
2021/12/19 09:53:37;;;;;;;4.40;2.28;;;6.90;99.90;;;;;;4815523;29;20413;-87
2021/12/19 09:56:03;;;;;;;2.03;1.38;;;6.90;99.90;;;;;;4815963;29;20046;-87
2021/12/19 09:58:34;;;;;;;3.50;1.60;;;6.90;99.90;;;;;;4831074;29;20138;-88
2021/12/19 10:01:03;;;;;;;3.72;1.60;;;7.40;99.90;;;;;;4816334;29;20110;-91
2021/12/19 10:03:28;;;;;;;5.38;1.77;;;6.90;99.90;;;;;;4816267;29;20069;-87
2021/12/19 10:06:25;;;;;;;1.93;1.63;;;6.40;99.90;;;;;;4816016;29;20489;-87
2021/12/19 10:09:09;;;;;;;5.40;1.70;;;6.90;99.90;;;;;;4815760;29;20344;-88
2021/12/19 10:11:55;;;;;;;4.63;1.73;;;6.90;99.90;;;;;;4815968;29;20054;-87
2021/12/19 10:14:33;;;;;;;4.30;2.45;;;6.90;99.90;;;;;;4815715;29;20144;-87
2021/12/19 10:17:01;;;;;;;3.60;1.67;;;6.90;99.90;;;;;;4812985;29;20045;-87
2021/12/19 10:19:48;;;;;;;6.65;1.95;;;7.00;99.90;;;;;;4813043;29;20498;-87
2021/12/19 10:22:49;;;;;;;3.70;1.73;;;7.10;99.90;;;;;;4813121;29;20490;-87
2021/12/19 10:25:20;;;;;;;4.97;2.22;;;7.00;99.90;;;;;;4737534;30;20408;-87
2021/12/19 10:28:13;;;;;;;9.27;2.05;;;7.00;99.90;;;;;;4812374;29;20573;-87
2021/12/19 10:30:51;;;;;;;5.93;1.75;;;7.00;99.90;;;;;;4823084;29;20085;-93
2021/12/19 10:33:22;;;;;;;8.52;2.47;;;7.80;99.90;;;;;;4816749;29;20435;-92
2021/12/19 10:35:54;;;;;;;4.63;2.58;;;7.10;99.90;;;;;;4827531;29;20061;-89
2021/12/19 10:38:26;;;;;;;7.25;2.78;;;7.20;99.90;;;;;;4842735;29;20053;-87
2021/12/19 10:41:00;;;;;;;5.75;2.38;;;7.00;99.90;;;;;;4812427;29;20056;-87
2021/12/19 10:43:29;;;;;;;4.93;2.72;;;7.10;99.90;;;;;;4813132;29;20062;-88
2021/12/19 10:45:59;;;;;;;4.47;2.47;;;7.10;99.90;;;;;;4811812;29;20516;-87
2021/12/19 10:48:29;;;;;;;4.30;2.53;;;6.80;99.90;;;;;;4827413;29;20049;-88
2021/12/19 10:51:03;;;;;;;5.15;2.50;;;7.10;99.90;;;;;;4827311;29;20089;-88
2021/12/19 10:54:01;;;;;;;7.90;2.20;;;7.10;99.90;;;;;;4812072;29;20073;-88
2021/12/19 10:56:34;;;;;;;7.82;2.28;;;7.10;99.90;;;;;;4810734;29;20140;-87
2021/12/19 10:59:05;;;;;;;4.65;1.75;;;7.10;99.90;;;;;;4827548;29;20062;-87
2021/12/19 11:01:38;;;;;;;8.77;2.47;;;7.10;99.90;;;;;;4812241;29;20129;-86
2021/12/19 11:04:08;;;;;;;5.63;1.95;;;7.10;99.90;;;;;;4828442;29;20050;-88
2021/12/19 11:06:41;;;;;;;5.50;1.73;;;7.10;99.90;;;;;;4817755;29;20056;-85
2021/12/19 11:09:10;;;;;;;7.57;2.25;;;7.20;99.90;;;;;;4827171;29;20060;-86
2021/12/19 11:11:52;;;;;;;10.85;2.38;;;7.10;99.90;;;;;;4827168;29;20050;-85
2021/12/19 11:14:34;;;;;;;6.15;1.73;;;7.20;99.90;;;;;;4811952;29;20057;-86
2021/12/19 11:17:23;;;;;;;4.28;2.33;;;7.20;99.90;;;;;;4843525;29;20414;-85
2021/12/19 11:20:20;;;;;;;3.45;1.42;;;7.20;99.90;;;;;;4826597;29;20057;-85
2021/12/19 11:22:46;;;;;;;10.30;1.58;;;6.80;99.90;;;;;;4838097;29;20083;-86
2021/12/19 11:25:12;;;;;;;8.67;2.50;;;7.20;99.90;;;;;;4811397;29;20066;-86
2021/12/19 11:27:38;;;;;;;9.13;2.03;;;7.20;99.90;;;;;;4826122;29;20512;-86
2021/12/19 11:30:04;;;;;;;5.13;1.57;;;7.20;99.90;;;;;;4811299;29;20556;-86
2021/12/19 11:32:56;;;;;;;8.20;2.28;;;7.20;99.90;;;;;;4811759;29;20566;-88
2021/12/19 11:35:26;;;;;;;4.38;2.38;;;8.20;99.90;;;;;;4820790;29;20505;-87
2021/12/19 11:38:06;;;;;;;9.43;2.80;;;7.20;99.90;;;;;;4810743;29;20062;-86
2021/12/19 11:40:35;;;;;;;4.85;2.00;;;7.20;99.90;;;;;;4826371;29;20045;-86
2021/12/19 11:43:19;;;;;;;3.97;1.88;;;7.20;99.90;;;;;;4810541;29;20497;-87
2021/12/19 11:45:58;;;;;;;7.45;2.30;;;7.20;99.90;;;;;;4826151;29;20089;-85
2021/12/19 11:48:33;;;;;;;5.45;2.92;;;7.20;99.90;;;;;;4826469;29;20062;-85
2021/12/19 11:51:04;;;;;;;7.35;2.85;;;7.30;99.90;;;;;;4810809;29;20050;-88
2021/12/19 11:53:39;;;;;;;11.98;2.47;;;7.30;99.90;;;;;;4826251;29;20054;-87
2021/12/19 11:56:09;;;;;;;3.38;1.90;;;7.30;99.90;;;;;;4810196;29;20141;-86
2021/12/19 11:58:49;;;;;;;7.18;1.75;;;7.30;99.90;;;;;;4825841;29;20080;-85
2021/12/19 12:01:30;;;;;;;5.72;2.58;;;7.30;99.90;;;;;;4825979;29;20046;-85
2021/12/19 12:04:14;;;;;;;6.38;1.95;;;7.30;99.90;;;;;;4824784;29;20074;-85
2021/12/19 12:06:42;;;;;;;11.32;2.65;;;7.30;99.90;;;;;;4825769;29;20400;-85
2021/12/19 12:09:21;;;;;;;6.50;2.00;;;7.30;99.90;;;;;;4840511;29;20045;-85
2021/12/19 12:12:08;;;;;;;9.40;2.75;;;7.30;99.90;;;;;;4825073;29;20057;-87
2021/12/19 12:14:38;;;;;;;6.30;2.08;;;7.30;99.90;;;;;;4810201;29;20066;-87
2021/12/19 12:17:22;;;;;;;6.53;2.03;;;7.30;99.90;;;;;;4809992;29;20046;-85
2021/12/19 12:19:49;;;;;;;9.88;2.35;;;7.30;99.90;;;;;;4810025;29;20058;-86
2021/12/19 12:22:25;;;;;;;7.07;2.83;;;7.40;99.90;;;;;;4810386;29;20069;-85
2021/12/19 12:25:11;;;;;;;9.32;1.80;;;7.30;99.90;;;;;;4809863;29;20054;-85
2021/12/19 12:27:51;;;;;;;10.13;2.70;;;7.30;99.90;;;;;;4825169;29;20100;-85
2021/12/19 12:30:27;;;;;;;8.57;2.83;;;7.40;99.90;;;;;;4810295;29;20050;-85
2021/12/19 12:32:55;;;;;;;5.82;2.28;;;7.40;99.90;;;;;;4840266;29;20054;-87
2021/12/19 12:35:22;;;;;;;5.45;2.95;;;7.40;99.90;;;;;;4825261;29;20053;-86
2021/12/19 12:37:48;;;;;;;7.35;2.38;;;7.40;99.90;;;;;;4809272;29;20450;-86
2021/12/19 12:43:16;;;;;;;4.82;1.90;;;7.40;99.90;;;;;;4825053;29;20093;-86
2021/12/19 12:45:47;;;;;;;5.05;2.22;;;7.40;99.90;;;;;;4824927;29;20298;-87
2021/12/19 12:48:41;;;;;;;10.75;2.60;;;7.40;99.90;;;;;;4825323;29;20057;-90
2021/12/19 12:51:35;;;;;;;6.55;3.13;;;7.40;99.90;;;;;;4841116;29;20053;-84
2021/12/19 12:54:12;;;;;;;9.23;2.28;;;7.40;99.90;;;;;;4821829;29;20510;-88
2021/12/19 12:56:46;;;;;;;7.30;2.70;;;7.40;99.90;;;;;;4820772;29;20085;-86
2021/12/19 12:59:22;;;;;;;3.95;2.20;;;7.40;99.90;;;;;;4807058;29;20096;-86
2021/12/19 13:01:51;;;;;;;9.32;2.38;;;7.40;99.90;;;;;;4807529;29;20502;-88
2021/12/19 13:04:24;;;;;;;5.05;2.63;;;7.40;99.90;;;;;;4807325;29;20114;-84
2021/12/19 13:06:59;;;;;;;5.90;2.65;;;7.40;99.90;;;;;;4822293;29;20057;-91
2021/12/19 13:09:46;;;;;;;6.70;2.45;;;7.50;99.90;;;;;;4822493;29;20046;-84
2021/12/19 13:12:11;;;;;;;7.10;2.28;;;7.50;99.90;;;;;;4822342;29;20054;-87
2021/12/19 13:14:51;;;;;;;8.10;2.10;;;7.50;99.90;;;;;;4807721;29;20054;-84
2021/12/19 13:17:27;;;;;;;2.92;1.80;;;7.50;99.90;;;;;;4822681;29;20498;-84
2021/12/19 13:20:03;;;;;;;15.35;2.75;;;7.50;99.90;;;;;;4822087;29;20133;-89
2021/12/19 13:22:35;;;;;;;6.45;2.72;;;7.50;99.90;;;;;;4807511;29;20553;-87
2021/12/19 13:25:15;;;;;;;6.20;2.10;;;7.50;99.90;;;;;;4822069;29;20525;-85
2021/12/19 13:27:59;;;;;;;6.45;2.20;;;7.50;99.90;;;;;;4822472;29;20089;-85
2021/12/19 13:30:31;;;;;;;7.22;2.30;;;7.50;99.90;;;;;;4822988;29;20046;-86
2021/12/19 13:32:59;;;;;;;5.38;2.22;;;7.50;99.90;;;;;;4807421;29;20517;-86
2021/12/19 13:35:32;;;;;;;4.45;2.53;;;7.80;99.90;;;;;;4837979;29;20046;-86
2021/12/19 13:38:05;;;;;;;6.43;2.58;;;7.50;99.90;;;;;;4822501;29;20058;-86
2021/12/19 13:40:40;;;;;;;5.80;2.33;;;7.50;99.90;;;;;;4823149;29;20108;-85
2021/12/19 13:43:17;;;;;;;7.78;2.95;;;7.50;99.90;;;;;;4822628;29;20057;-85
2021/12/19 13:45:49;;;;;;;5.35;2.05;;;7.50;99.90;;;;;;4822868;29;20099;-86
2021/12/19 13:48:28;;;;;;;6.57;2.55;;;7.50;99.90;;;;;;4822499;29;20413;-86
2021/12/19 13:51:16;;;;;;;4.88;2.38;;;7.50;99.90;;;;;;4825037;29;20057;-86
2021/12/19 13:53:45;;;;;;;6.32;2.38;;;7.50;99.90;;;;;;4825783;29;20102;-85
2021/12/19 13:56:24;;;;;;;7.30;2.05;;;7.50;99.90;;;;;;4825456;29;20114;-85
2021/12/19 13:58:56;;;;;;;10.00;3.05;;;7.50;99.90;;;;;;4811037;29;20391;-85
2021/12/19 14:01:29;;;;;;;10.30;2.60;;;7.50;99.90;;;;;;4825974;29;20043;-85
2021/12/19 14:04:04;;;;;;;12.15;2.30;;;7.50;99.90;;;;;;4810881;29;20062;-86
2021/12/19 14:06:37;;;;;;;6.90;3.00;;;7.00;99.90;;;;;;4810850;29;20387;-86
2021/12/19 14:09:11;;;;;;;3.13;2.05;;;7.50;99.90;;;;;;4825625;29;20402;-86
2021/12/19 14:11:40;;;;;;;6.25;3.33;;;7.50;99.90;;;;;;4825841;29;20058;-86
2021/12/19 14:14:23;;;;;;;10.55;3.10;;;7.50;99.90;;;;;;4825071;29;20513;-86
2021/12/19 14:16:55;;;;;;;7.78;2.92;;;7.50;99.90;;;;;;4810403;29;20050;-85
2021/12/19 14:19:24;;;;;;;5.65;2.20;;;7.50;99.90;;;;;;4825393;29;20121;-86
2021/12/19 14:21:55;;;;;;;18.85;4.07;;;7.50;99.90;;;;;;4810427;29;20065;-85
2021/12/19 14:24:31;;;;;;;7.82;2.60;;;7.70;99.90;;;;;;4825300;29;20058;-86
2021/12/19 14:27:13;;;;;;;6.97;2.10;;;8.50;99.90;;;;;;4810545;29;20104;-85
2021/12/19 14:29:41;;;;;;;4.38;1.88;;;7.70;99.90;;;;;;4825437;29;20052;-86